Time;durP1;ratioP1;P1;durP2;ratioP2;P2;SDS_P1;SDS_P2;PMS_P1;PMS_P2;Temp;Humidity;BMP_temperature;BMP_pressure;BME280_temperature;BME280_humidity;BME280_pressure;Samples;Min_cycle;Max_cycle;Signal;HPM_P1;HPM_P2
2021/01/14 00:00:19;;;;;;;21.52;9.98;;;;;;;-0.12;88.83;99274.14;1687403;82;25861;-73
2021/01/14 00:02:45;;;;;;;20.77;8.25;;;;;;;-0.14;88.82;99277.27;1681395;82;25867;-72
2021/01/14 00:05:12;;;;;;;21.37;8.08;;;;;;;-0.15;88.82;99278.16;1689493;82;35244;-72
2021/01/14 00:07:39;;;;;;;13.68;8.18;;;;;;;-0.15;88.85;99282.11;1697220;82;26512;-72
2021/01/14 00:10:11;;;;;;;10.35;6.40;;;;;;;-0.14;88.88;99286.02;1693070;82;27001;-73
2021/01/14 00:12:39;;;;;;;;;;;;;;;-0.14;88.84;99286.48;1697488;82;25864;-72
2021/01/14 00:15:07;;;;;;;13.15;6.50;;;;;;;-0.16;88.87;99282.56;1671268;83;25448;-74
2021/01/14 00:17:33;;;;;;;11.95;6.58;;;;;;;-0.18;88.90;99282.17;1701360;82;25844;-71
2021/01/14 00:19:59;;;;;;;9.73;5.67;;;;;;;-0.18;88.91;99283.49;1701223;82;25927;-71
2021/01/14 00:22:25;;;;;;;12.45;6.60;;;;;;;-0.20;88.89;99291.42;1680628;82;27420;-72
2021/01/14 00:24:52;;;;;;;10.75;5.62;;;;;;;-0.21;88.92;99294.96;1689776;82;33917;-73
2021/01/14 00:27:19;;;;;;;13.32;6.70;;;;;;;-0.21;88.91;99300.67;1687954;82;25984;-72
2021/01/14 00:29:45;;;;;;;10.90;6.15;;;;;;;-0.23;88.97;99296.76;1690163;82;26129;-72
2021/01/14 00:32:11;;;;;;;10.30;5.90;;;;;;;-0.20;88.99;99295.83;1690726;82;26466;-73
2021/01/14 00:34:38;;;;;;;9.43;5.40;;;;;;;-0.21;88.97;99299.36;1697013;82;27421;-72
2021/01/14 00:39:56;;;;;;;9.48;5.40;;;;;;;-0.26;88.99;99302.09;1680338;82;25909;-71
2021/01/14 00:42:22;;;;;;;9.38;4.58;;;;;;;-0.24;89.08;99302.05;1690013;82;25813;-73
2021/01/14 00:44:48;;;;;;;8.90;4.97;;;;;;;-0.24;89.08;99303.38;1696081;82;25809;-72
2021/01/14 00:47:14;;;;;;;7.10;4.47;;;;;;;-0.27;89.03;99300.80;1685488;82;28301;-72
2021/01/14 00:49:39;;;;;;;10.53;4.78;;;;;;;-0.27;89.08;99308.25;1692589;82;33439;-72
2021/01/14 00:52:05;;;;;;;9.48;5.03;;;;;;;-0.30;89.10;99307.00;1698899;82;30424;-72
2021/01/14 00:54:31;;;;;;;8.58;4.75;;;;;;;-0.29;89.13;99313.13;1688396;82;25950;-72
2021/01/14 00:56:57;;;;;;;5.80;4.25;;;;;;;-0.31;89.17;99319.75;1701795;82;25977;-73
2021/01/14 00:59:22;;;;;;;5.20;3.87;;;;;;;-0.29;89.21;99317.95;1697246;82;28647;-73
2021/01/14 01:01:48;;;;;;;7.55;4.28;;;;;;;-0.27;89.20;99333.27;1683041;82;33826;-73
2021/01/14 01:04:14;;;;;;;7.37;4.20;;;;;;;-0.28;89.21;99334.61;1682051;82;30506;-72
2021/01/14 01:06:42;;;;;;;4.83;3.60;;;;;;;-0.31;89.22;99326.33;1690786;82;25866;-72
2021/01/14 01:09:10;;;;;;;6.87;3.72;;;;;;;-0.30;89.27;99328.52;1692848;82;25763;-73
2021/01/14 01:11:38;;;;;;;8.48;3.77;;;;;;;-0.30;89.29;99335.09;1693117;82;28340;-73
2021/01/14 01:14:05;;;;;;;10.32;4.10;;;;;;;-0.32;89.33;99335.12;1686111;82;26079;-71
2021/01/14 01:16:31;;;;;;;6.28;4.15;;;;;;;-0.32;89.37;99343.02;1688532;82;26543;-72
2021/01/14 01:18:59;;;;;;;5.50;3.55;;;;;;;-0.30;89.37;99349.12;1699309;82;25883;-72
2021/01/14 01:21:27;;;;;;;6.75;4.20;;;;;;;-0.29;89.38;99346.05;1688729;82;25849;-71
2021/01/14 01:23:52;;;;;;;7.17;4.08;;;;;;;-0.32;89.36;99352.23;1697126;82;27240;-70
2021/01/14 01:26:20;;;;;;;7.17;3.33;;;;;;;-0.31;89.40;99358.38;1696771;82;33353;-71
2021/01/14 01:28:47;;;;;;;9.30;3.75;;;;;;;-0.32;89.41;99358.82;1688202;82;25819;-74
2021/01/14 01:31:14;;;;;;;4.25;3.70;;;;;;;-0.30;89.43;99361.42;1705389;82;25771;-71
2021/01/14 01:33:41;;;;;;;5.25;3.12;;;;;;;-0.32;89.42;99370.67;1691975;82;25508;-74
2021/01/14 01:36:08;;;;;;;7.60;3.27;;;;;;;-0.32;89.43;99375.06;1691456;82;27597;-71
2021/01/14 01:38:33;;;;;;;6.17;4.10;;;;;;;-0.30;89.45;99369.32;1699586;82;26021;-71
2021/01/14 01:41:03;;;;;;;6.35;3.15;;;;;;;-0.29;89.43;99375.87;1660210;84;30588;-71
2021/01/14 01:43:29;;;;;;;5.90;3.37;;;;;;;-0.30;89.40;99376.77;1678026;82;26383;-72
2021/01/14 01:45:56;;;;;;;5.08;3.10;;;;;;;-0.28;89.44;99384.64;1686629;82;26499;-72
2021/01/14 01:48:23;;;;;;;4.15;3.08;;;;;;;-0.29;89.43;99381.59;1689758;82;27560;-72
2021/01/14 01:50:53;;;;;;;7.60;3.40;;;;;;;-0.31;89.43;99388.20;1694081;82;25874;-73
2021/01/14 01:53:18;;;;;;;6.35;3.52;;;;;;;-0.31;89.43;99386.02;1698475;82;26284;-72
2021/01/14 01:55:46;;;;;;;8.00;3.80;;;;;;;-0.30;89.45;99386.43;1689573;82;25962;-73
2021/01/14 01:58:12;;;;;;;9.58;3.83;;;;;;;-0.29;89.46;99385.53;1697776;82;25790;-72
2021/01/14 02:00:39;;;;;;;5.90;3.47;;;;;;;-0.30;89.44;99393.88;1689833;82;27581;-73
2021/01/14 02:03:05;;;;;;;6.12;3.58;;;;;;;-0.32;89.43;99394.81;1690052;82;26019;-73
2021/01/14 02:05:35;;;;;;;4.78;3.62;;;;;;;-0.33;89.43;99396.58;1701187;82;25871;-72
2021/01/14 02:08:35;;;;;;;6.80;3.50;;;;;;;-0.34;89.46;99393.08;1691176;82;26075;-73
2021/01/14 02:11:07;;;;;;;3.95;2.77;;;;;;;-0.35;89.44;99408.45;1670089;83;25606;-71
2021/01/14 02:14:07;;;;;;;6.20;2.75;;;;;;;-0.35;89.52;99406.27;1687404;82;27432;-74
2021/01/14 02:16:37;;;;;;;6.45;2.83;;;;;;;-0.36;89.49;99404.53;1676473;82;26332;-72
2021/01/14 02:19:06;;;;;;;4.37;3.12;;;;;;;-0.37;89.57;99414.19;1692352;82;25797;-74
2021/01/14 02:21:32;;;;;;;4.37;2.95;;;;;;;-0.37;89.54;99412.88;1682023;82;26009;-72
2021/01/14 02:24:12;;;;;;;4.53;3.22;;;;;;;-0.38;89.56;99422.98;1686485;82;25974;-73
2021/01/14 02:26:40;;;;;;;5.92;3.67;;;;;;;-0.37;89.60;99423.41;1690215;82;27567;-73
2021/01/14 02:29:06;;;;;;;7.10;3.30;;;;;;;-0.34;89.62;99427.75;1695080;82;26483;-72
2021/01/14 02:31:32;;;;;;;5.20;3.42;;;;;;;-0.31;89.62;99439.53;1692924;82;25804;-73
2021/01/14 02:33:57;;;;;;;10.18;3.77;;;;;;;-0.30;89.59;99445.67;1696653;82;26460;-74
2021/01/14 02:36:27;;;;;;;6.33;3.22;;;;;;;-0.31;89.60;99446.56;1695634;82;26480;-74
2021/01/14 02:38:54;;;;;;;10.25;3.85;;;;;;;-0.33;89.61;99442.65;1690076;82;28153;-73
2021/01/14 02:41:20;;;;;;;7.28;3.77;;;;;;;-0.32;89.61;99453.59;1681022;82;26020;-73
2021/01/14 02:43:47;;;;;;;8.25;3.75;;;;;;;-0.30;89.64;99455.75;1688833;82;25815;-72
2021/01/14 02:46:13;;;;;;;6.67;3.90;;;;;;;-0.30;89.62;99453.13;1694835;82;25943;-73
2021/01/14 02:49:03;;;;;;;6.05;3.40;;;;;;;-0.30;89.62;99457.07;1676846;82;25815;-72
2021/01/14 02:51:41;;;;;;;10.23;3.85;;;;;;;-0.28;89.63;99457.91;1695294;82;27460;-71
2021/01/14 02:54:10;;;;;;;8.30;3.80;;;;;;;-0.27;89.63;99462.73;1688574;82;25854;-71
2021/01/14 02:56:38;;;;;;;6.87;4.28;;;;;;;-0.28;89.64;99463.62;1694530;82;25462;-72
2021/01/14 02:59:06;;;;;;;10.30;4.85;;;;;;;-0.32;89.63;99467.20;1688253;82;25977;-72
2021/01/14 03:01:34;;;;;;;11.05;4.80;;;;;;;-0.31;89.66;99476.39;1688155;82;25945;-71
2021/01/14 03:04:00;;;;;;;9.65;5.22;;;;;;;-0.31;89.63;99480.34;1680932;82;27654;-71
2021/01/14 03:06:27;;;;;;;8.20;4.40;;;;;;;-0.30;89.67;99477.27;1691851;82;33758;-72
2021/01/14 03:08:52;;;;;;;11.30;4.78;;;;;;;-0.28;89.67;99481.61;1665839;83;25826;-72
2021/01/14 03:11:26;;;;;;;9.10;4.28;;;;;;;-0.27;89.66;99484.66;1673146;83;25904;-72
2021/01/14 03:13:52;;;;;;;6.58;4.28;;;;;;;-0.25;89.64;99488.58;1665421;83;25957;-71
2021/01/14 03:16:18;;;;;;;8.33;4.37;;;;;;;-0.27;89.61;99493.01;1674007;83;25978;-71
2021/01/14 03:18:44;;;;;;;8.55;5.00;;;;;;;-0.25;89.63;99496.48;1684679;83;25933;-72
2021/01/14 03:21:10;;;;;;;7.33;5.45;;;;;;;-0.28;89.65;99495.22;1682097;83;30559;-71
2021/01/14 03:23:37;;;;;;;7.47;4.58;;;;;;;-0.35;89.59;99495.33;1672152;84;25964;-71
2021/01/14 03:26:03;;;;;;;6.97;4.47;;;;;;;-0.32;89.62;99506.70;1668518;83;25970;-71
2021/01/14 03:28:28;;;;;;;11.10;6.12;;;;;;;-0.30;89.70;99513.67;1686201;83;25951;-71
2021/01/14 03:30:56;;;;;;;9.20;4.42;;;;;;;-0.28;89.73;99510.56;1690098;83;33327;-72
2021/01/14 03:33:21;;;;;;;6.97;4.45;;;;;;;-0.24;89.70;99517.97;1682752;83;25881;-71
2021/01/14 03:35:47;;;;;;;9.58;4.85;;;;;;;-0.25;89.68;99518.41;1688271;83;25844;-71
2021/01/14 03:38:13;;;;;;;7.12;4.12;;;;;;;-0.25;89.66;99522.81;1674213;83;25758;-71
2021/01/14 03:40:39;;;;;;;7.73;4.10;;;;;;;-0.24;89.68;99527.19;1684143;83;28121;-71
2021/01/14 03:43:04;;;;;;;8.00;4.22;;;;;;;-0.24;89.69;99529.81;1680300;83;33733;-71
2021/01/14 03:45:30;;;;;;;7.22;4.25;;;;;;;-0.22;89.71;99538.55;1672935;83;30648;-72
2021/01/14 03:47:56;;;;;;;6.83;4.15;;;;;;;-0.23;89.66;99538.14;1687179;83;35591;-71
2021/01/14 03:50:21;;;;;;;7.45;3.92;;;;;;;-0.24;89.68;99545.61;1679161;83;25935;-71
2021/01/14 03:52:47;;;;;;;11.20;5.12;;;;;;;-0.25;89.68;99546.51;1691679;83;25859;-72
2021/01/14 03:55:13;;;;;;;7.83;5.12;;;;;;;-0.25;89.73;99549.14;1692966;83;33649;-71
2021/01/14 03:57:38;;;;;;;7.62;4.60;;;;;;;-0.24;89.74;99558.78;1675350;83;30727;-71
2021/01/14 04:00:09;;;;;;;6.95;4.60;;;;;;;-0.23;89.72;99556.12;1684516;83;25891;-71
2021/01/14 04:02:35;;;;;;;;;;;;;;;-0.23;89.75;99560.07;1688889;82;25757;-72
2021/01/14 04:05:01;;;;;;;6.72;4.17;;;;;;;-0.21;89.75;99565.31;1680161;83;26985;-71
2021/01/14 04:07:26;;;;;;;8.23;5.42;;;;;;;-0.23;89.74;99573.69;1680468;82;33411;-73
2021/01/14 04:09:52;;;;;;;12.23;5.67;;;;;;;-0.22;89.77;99572.78;1682449;82;30625;-71
2021/01/14 04:12:27;;;;;;;8.20;4.92;;;;;;;-0.20;89.79;99577.13;1701057;82;25876;-71
2021/01/14 04:14:54;;;;;;;10.48;6.10;;;;;;;-0.17;89.81;99585.43;1683120;82;26689;-74
2021/01/14 04:17:20;;;;;;;11.38;6.47;;;;;;;-0.15;89.82;99593.73;1683688;82;28348;-74
2021/01/14 04:19:46;;;;;;;13.45;7.03;;;;;;;-0.13;89.81;99596.34;1695574;82;26116;-73
2021/01/14 04:22:14;;;;;;;14.33;6.17;;;;;;;-0.13;89.79;99593.70;1688612;82;30549;-75
2021/01/14 04:24:41;;;;;;;15.95;8.25;;;;;;;-0.14;89.79;99603.81;1688363;82;25799;-75
2021/01/14 04:27:07;;;;;;;20.00;10.18;;;;;;;-0.12;89.82;99613.88;1688674;82;26373;-72
2021/01/14 04:29:33;;;;;;;22.07;11.38;;;;;;;-0.11;89.80;99615.17;1692309;82;27584;-72
2021/01/14 04:31:58;;;;;;;19.52;10.63;;;;;;;-0.08;89.85;99624.34;1695772;82;33357;-71
2021/01/14 04:34:24;;;;;;;27.40;13.03;;;;;;;-0.06;89.81;99629.13;1689817;82;30527;-72
2021/01/14 04:37:00;;;;;;;24.47;13.15;;;;;;;-0.03;89.81;99628.20;1688769;81;25918;-71
2021/01/14 04:39:26;;;;;;;29.82;14.87;;;;;;;-0.02;89.85;99637.41;1688004;82;25847;-73
2021/01/14 04:41:58;;;;;;;34.88;18.15;;;;;;;0.03;89.83;99646.96;1682350;82;28165;-72
2021/01/14 04:44:27;;;;;;;33.85;17.25;;;;;;;0.03;89.84;99651.78;1696738;82;25977;-71
2021/01/14 04:47:04;;;;;;;36.30;18.10;;;;;;;0.05;89.84;99655.27;1675494;82;25884;-72
2021/01/14 04:49:30;;;;;;;40.73;19.15;;;;;;;0.09;89.87;99661.34;1686364;82;26438;-74
2021/01/14 04:52:05;;;;;;;43.73;18.75;;;;;;;0.09;89.82;99662.22;1683968;82;25863;-73
2021/01/14 04:54:35;;;;;;;40.83;19.50;;;;;;;0.11;89.85;99670.09;1688746;82;27213;-71
2021/01/14 04:57:18;;;;;;;45.57;20.40;;;;;;;0.11;89.83;99669.65;1687903;82;25782;-74
2021/01/14 04:59:39;;;;;;;40.73;18.15;;;;;;;0.12;89.83;99674.47;1686897;82;25803;-73
2021/01/14 05:02:09;;;;;;;43.48;21.40;;;;;;;0.12;89.83;99684.56;1688434;82;26375;-71
2021/01/14 05:04:38;;;;;;;45.80;23.03;;;;;;;0.09;89.81;99689.88;1692734;82;25859;-73
2021/01/14 05:07:06;;;;;;;46.15;20.60;;;;;;;0.09;89.80;99693.83;1687127;82;27471;-71
2021/01/14 05:09:38;;;;;;;55.15;23.50;;;;;;;0.10;89.81;99696.02;1693121;82;25887;-74
2021/01/14 05:12:06;;;;;;;51.40;23.47;;;;;;;0.12;89.85;99712.67;1692874;82;25893;-71
2021/01/14 05:14:33;;;;;;;52.98;22.55;;;;;;;0.12;89.82;99712.67;1695415;82;26309;-71
2021/01/14 05:17:01;;;;;;;52.83;24.27;;;;;;;0.11;89.85;99709.61;1696061;82;25760;-71
2021/01/14 05:19:27;;;;;;;57.83;25.35;;;;;;;0.12;89.85;99720.13;1695553;82;27562;-73
2021/01/14 05:21:55;;;;;;;59.53;25.95;;;;;;;0.12;89.85;99726.72;1690012;82;26171;-72
2021/01/14 05:24:20;;;;;;;56.75;24.40;;;;;;;0.11;89.84;99727.61;1684343;82;25895;-71
2021/01/14 05:26:46;;;;;;;55.88;22.93;;;;;;;0.12;89.85;99733.75;1694687;82;25813;-72
2021/01/14 05:29:18;;;;;;;61.50;26.68;;;;;;;0.10;89.85;99736.41;1687130;82;25862;-72
2021/01/14 05:31:45;;;;;;;55.15;23.50;;;;;;;0.10;89.85;99746.08;1693407;82;27475;-73
2021/01/14 05:34:14;;;;;;;56.50;24.12;;;;;;;0.11;89.90;99755.72;1691969;82;26440;-71
2021/01/14 05:36:52;;;;;;;64.07;25.88;;;;;;;0.12;89.90;99757.47;1680955;82;25799;-72
2021/01/14 05:39:19;;;;;;;74.40;28.15;;;;;;;0.13;89.90;99758.76;1691033;82;25926;-74
2021/01/14 05:41:48;;;;;;;66.65;27.17;;;;;;;0.14;89.93;99770.17;1684789;82;25755;-71
2021/01/14 05:44:14;;;;;;;73.37;29.35;;;;;;;0.16;89.95;99781.11;1683978;82;27606;-72
2021/01/14 05:46:40;;;;;;;61.13;28.00;;;;;;;0.17;89.92;99785.48;1682696;82;25772;-72
2021/01/14 05:49:12;;;;;;;81.53;30.77;;;;;;;0.18;89.92;99794.27;1682423;82;30662;-71
2021/01/14 05:51:38;;;;;;;77.95;29.23;;;;;;;0.17;89.90;99802.61;1686571;82;26227;-72
2021/01/14 05:54:14;;;;;;;71.40;30.23;;;;;;;0.15;89.89;99805.72;1693406;82;25945;-72
2021/01/14 05:56:48;;;;;;;62.62;25.40;;;;;;;0.16;89.90;99812.73;1686852;82;26378;-72
2021/01/14 05:59:19;;;;;;;66.57;25.80;;;;;;;0.16;89.91;99811.86;1684498;82;26452;-73
2021/01/14 06:02:00;;;;;;;60.80;24.92;;;;;;;0.15;89.91;99820.21;1688303;82;25711;-72
2021/01/14 06:04:28;;;;;;;61.28;25.48;;;;;;;0.15;89.87;99832.07;1682215;82;25918;-73
2021/01/14 06:06:57;;;;;;;74.27;26.30;;;;;;;0.16;89.91;99838.20;1687207;82;26604;-72
2021/01/14 06:09:23;;;;;;;57.85;23.12;;;;;;;0.16;89.91;99839.08;1687822;82;28335;-73
2021/01/14 06:11:55;;;;;;;59.30;23.22;;;;;;;0.16;89.88;99844.80;1694873;82;25774;-72
2021/01/14 06:14:32;;;;;;;51.48;22.82;;;;;;;0.16;89.87;99850.94;1699056;82;25906;-72
2021/01/14 06:17:00;;;;;;;55.33;22.37;;;;;;;0.14;89.86;99859.31;1687626;82;25954;-71
2021/01/14 06:19:28;;;;;;;52.88;20.48;;;;;;;0.14;89.87;99868.53;1683820;82;25801;-73
2021/01/14 06:21:57;;;;;;;47.85;20.32;;;;;;;0.12;89.79;99882.17;1698327;82;28633;-73
2021/01/14 06:24:36;;;;;;;46.75;20.27;;;;;;;0.08;89.80;99883.11;1701318;82;25817;-73
2021/01/14 06:27:09;;;;;;;38.75;17.17;;;;;;;0.07;89.78;99891.03;1686794;82;25810;-73
2021/01/14 06:29:41;;;;;;;36.75;14.85;;;;;;;0.03;89.77;99888.88;1678770;82;25838;-72
2021/01/14 06:32:16;;;;;;;36.30;15.03;;;;;;;-0.01;89.76;99904.34;1628405;84;26570;-70
2021/01/14 06:34:44;;;;;;;36.73;16.55;;;;;;;-0.03;89.75;99911.38;1689735;82;26636;-72
2021/01/14 06:37:22;;;;;;;57.10;19.27;;;;;;;-0.06;89.73;99918.88;1674652;82;25890;-73
2021/01/14 06:39:52;;;;;;;51.83;19.23;;;;;;;-0.07;89.71;99928.98;1677901;82;25870;-73
2021/01/14 06:42:33;;;;;;;59.73;20.30;;;;;;;-0.05;89.71;99943.02;1689577;82;26971;-71
2021/01/14 06:45:11;;;;;;;46.23;19.02;;;;;;;-0.03;89.67;99941.68;1670366;83;33154;-71
2021/01/14 06:47:43;;;;;;;47.73;19.65;;;;;;;-0.06;89.62;99945.66;1682490;82;27493;-73
2021/01/14 06:50:20;;;;;;;53.85;21.33;;;;;;;-0.06;89.65;99954.89;1683742;82;26041;-74
2021/01/14 06:53:06;;;;;;;48.40;21.42;;;;;;;-0.06;89.63;99963.66;1686562;82;25790;-72
2021/01/14 06:55:36;;;;;;;46.13;19.60;;;;;;;-0.03;89.64;99964.07;1684767;82;25954;-74
2021/01/14 06:58:11;;;;;;;48.55;20.62;;;;;;;0.00;89.65;99966.19;1680424;82;25947;-73
2021/01/14 07:00:48;;;;;;;49.50;21.35;;;;;;;0.00;89.57;99974.57;1698534;82;27485;-73
2021/01/14 07:03:23;;;;;;;52.60;21.25;;;;;;;0.00;89.57;99970.63;1697048;82;25954;-72
2021/01/14 07:05:58;;;;;;;51.80;22.80;;;;;;;0.04;89.60;99992.06;1689951;82;25934;-72
2021/01/14 07:08:44;;;;;;;57.17;22.75;;;;;;;0.07;89.57;99995.98;1693187;82;25890;-73
2021/01/14 07:11:17;;;;;;;54.40;22.80;;;;;;;0.10;89.58;100003.84;1710162;82;25805;-74
2021/01/14 07:13:46;;;;;;;64.42;22.93;;;;;;;0.13;89.58;100011.72;1706514;82;26917;-74
2021/01/14 07:16:15;;;;;;;49.55;20.60;;;;;;;0.14;89.53;100020.49;1697718;82;25865;-72
2021/01/14 07:18:43;;;;;;;50.00;19.73;;;;;;;0.15;89.49;100028.83;1707482;82;25920;-73
2021/01/14 07:21:35;;;;;;;61.60;24.47;;;;;;;0.15;89.50;100035.41;1704485;82;26331;-73
2021/01/14 07:24:19;;;;;;;85.67;27.80;;;;;;;0.16;89.50;100040.67;1714533;82;25849;-73
2021/01/14 07:27:00;;;;;;;78.78;28.10;;;;;;;0.17;89.50;100054.27;1714349;82;27660;-73
2021/01/14 07:29:26;;;;;;;93.22;28.02;;;;;;;0.20;89.50;100066.09;1710991;82;26055;-74
2021/01/14 07:31:56;;;;;;;75.20;27.87;;;;;;;0.20;89.49;100070.50;1692746;82;25807;-72
2021/01/14 07:34:44;;;;;;;61.05;25.77;;;;;;;0.19;89.44;100070.94;1698752;82;26012;-75
2021/01/14 07:37:19;;;;;;;68.02;25.88;;;;;;;0.18;89.46;100074.47;1702433;82;25845;-75
2021/01/14 07:39:58;;;;;;;67.58;25.97;;;;;;;0.22;89.46;100079.26;1707753;82;28176;-73
2021/01/14 07:42:32;;;;;;;63.85;27.13;;;;;;;0.20;89.44;100092.45;1707703;82;26509;-71
2021/01/14 07:45:02;;;;;;;66.20;27.82;;;;;;;0.19;89.43;100099.93;1692162;82;25908;-74
2021/01/14 07:47:35;;;;;;;79.05;25.90;;;;;;;0.20;89.47;100104.31;1707468;82;25902;-72
2021/01/14 07:50:24;;;;;;;130.67;32.20;;;;;;;0.23;89.50;100110.88;1704776;82;25803;-72
2021/01/14 07:52:58;;;;;;;71.35;28.57;;;;;;;0.24;89.46;100117.89;1696175;82;26649;-71
2021/01/14 07:55:37;;;;;;;108.83;29.80;;;;;;;0.25;89.48;100113.05;1704264;82;25931;-72
2021/01/14 07:58:20;;;;;;;120.65;29.50;;;;;;;0.27;89.50;100113.91;1705673;82;25833;-71
2021/01/14 08:01:09;;;;;;;71.85;25.85;;;;;;;0.29;89.44;100119.16;1694317;82;25922;-70
2021/01/14 08:03:43;;;;;;;51.73;22.65;;;;;;;0.26;89.42;100127.97;1699070;82;26441;-74
2021/01/14 08:06:34;;;;;;;55.50;23.12;;;;;;;0.31;89.46;100131.44;1706001;82;27581;-74
2021/01/14 08:09:07;;;;;;;68.45;24.70;;;;;;;0.31;89.43;100134.52;1686760;82;26588;-72
2021/01/14 08:11:50;;;;;;;95.05;27.98;;;;;;;0.30;89.44;100141.55;1682799;82;26226;-71
2021/01/14 08:14:21;;;;;;;63.30;23.75;;;;;;;0.31;89.42;100147.25;1689963;82;26030;-72
2021/01/14 08:16:55;;;;;;;64.45;24.45;;;;;;;0.33;89.38;100153.38;1685364;82;32488;-72
2021/01/14 08:19:33;;;;;;;72.30;27.62;;;;;;;0.32;89.35;100158.66;1690899;82;27580;-73
2021/01/14 08:22:06;;;;;;;67.42;25.25;;;;;;;0.33;89.37;100163.92;1688416;82;25832;-73
2021/01/14 08:24:44;;;;;;;67.40;26.70;;;;;;;0.36;89.37;100160.83;1676399;82;25953;-73
2021/01/14 08:27:34;;;;;;;116.05;26.60;;;;;;;0.39;89.36;100172.66;1700452;82;26688;-73
2021/01/14 08:30:16;;;;;;;73.25;25.77;;;;;;;0.38;89.28;100173.55;1688275;82;25847;-73
2021/01/14 08:33:04;;;;;;;79.05;27.73;;;;;;;0.38;89.32;100185.41;1682228;82;28167;-73
2021/01/14 08:35:33;;;;;;;63.55;27.62;;;;;;;0.38;89.28;100193.32;1685285;82;25882;-72
2021/01/14 08:38:13;;;;;;;153.25;33.92;;;;;;;0.39;89.31;100201.66;1681786;82;25931;-73
2021/01/14 08:40:41;;;;;;;88.75;26.40;;;;;;;0.43;89.34;100202.94;1695929;82;26635;-72
2021/01/14 08:43:16;;;;;;;66.80;24.90;;;;;;;0.42;89.26;100206.91;1693729;82;25961;-73
2021/01/14 08:45:55;;;;;;;59.77;22.82;;;;;;;0.40;89.22;100214.83;1693961;82;28169;-72
2021/01/14 08:48:29;;;;;;;64.53;25.65;;;;;;;0.35;89.16;100211.36;1678639;82;25858;-73
2021/01/14 08:51:02;;;;;;;62.35;24.65;;;;;;;0.35;89.24;100214.44;1696224;82;25939;-72
2021/01/14 08:53:34;;;;;;;55.08;23.00;;;;;;;0.30;89.17;100221.95;1698105;82;25910;-73
2021/01/14 08:56:10;;;;;;;55.73;23.10;;;;;;;0.27;89.19;100231.19;1689826;82;25989;-75
2021/01/14 08:58:43;;;;;;;51.33;20.97;;;;;;;0.30;89.20;100240.84;1670532;82;27629;-72
2021/01/14 09:01:22;;;;;;;50.48;21.12;;;;;;;0.26;89.11;100243.94;1686988;82;25831;-73
2021/01/14 09:03:50;;;;;;;49.42;20.32;;;;;;;0.28;89.15;100254.47;1682410;82;25805;-73
2021/01/14 09:06:34;;;;;;;54.55;21.52;;;;;;;0.27;89.12;100260.19;1685658;82;26649;-73
2021/01/14 09:09:02;;;;;;;50.63;19.45;;;;;;;0.27;89.09;100265.46;1698885;82;26029;-76
2021/01/14 09:11:30;;;;;;;46.25;19.12;;;;;;;0.24;89.06;100272.07;1679914;82;27650;-74
2021/01/14 09:14:15;;;;;;;52.60;22.13;;;;;;;0.21;89.02;100278.69;1687426;82;26327;-75
2021/01/14 09:16:45;;;;;;;44.27;17.90;;;;;;;0.25;89.07;100276.90;1690590;82;26263;-72
2021/01/14 09:19:23;;;;;;;44.77;17.42;;;;;;;0.32;89.06;100290.47;1708821;82;35790;-74
2021/01/14 09:21:49;;;;;;;48.55;18.75;;;;;;;0.34;89.05;100287.38;1704567;82;26450;-73
2021/01/14 09:24:17;;;;;;;40.70;16.87;;;;;;;0.40;89.05;100293.92;1685396;82;28420;-71
2021/01/14 09:26:49;;;;;;;37.40;16.57;;;;;;;0.43;88.97;100296.53;1692614;82;25934;-74
2021/01/14 09:29:15;;;;;;;40.80;17.62;;;;;;;0.38;88.88;100298.77;1696335;82;25853;-72
2021/01/14 09:31:42;;;;;;;43.15;16.93;;;;;;;0.34;88.88;100301.87;1690157;82;25909;-74
2021/01/14 09:34:09;;;;;;;37.90;16.95;;;;;;;0.37;88.95;100307.56;1682676;82;25967;-74
2021/01/14 09:36:36;;;;;;;36.95;16.15;;;;;;;0.47;89.02;100315.84;1681046;82;28259;-73
2021/01/14 09:39:07;;;;;;;36.70;16.30;;;;;;;0.55;89.00;100316.21;1686499;82;25914;-72
2021/01/14 09:41:38;;;;;;;47.33;17.90;;;;;;;0.58;88.87;100322.78;1667370;82;26057;-72
2021/01/14 09:44:11;;;;;;;41.00;16.12;;;;;;;0.55;88.74;100325.88;1685741;82;26292;-72
2021/01/14 09:46:42;;;;;;;35.95;13.75;;;;;;;0.51;88.68;100326.34;1692271;82;26534;-72
2021/01/14 09:49:11;;;;;;;32.93;13.90;;;;;;;0.50;88.71;100329.88;1655798;84;27629;-75
2021/01/14 09:51:39;;;;;;;40.28;16.30;;;;;;;0.46;88.59;100333.86;1654886;84;25930;-72
2021/01/14 09:54:07;;;;;;;33.95;13.65;;;;;;;0.36;88.47;100334.38;1653285;84;25937;-76
2021/01/14 09:56:43;;;;;;;34.13;14.00;;;;;;;0.25;88.30;100347.62;1651471;84;25961;-73
2021/01/14 09:59:42;;;;;;;40.20;16.67;;;;;;;0.20;88.39;100338.87;1657982;84;25716;-73
2021/01/14 10:02:17;;;;;;;36.23;15.95;;;;;;;0.20;88.39;100344.14;1701924;82;28182;-73
2021/01/14 10:04:47;;;;;;;38.17;15.75;;;;;;;0.18;88.24;100352.94;1681724;82;26088;-73
2021/01/14 10:07:17;;;;;;;127.30;44.88;;;;;;;0.15;88.24;100356.47;1700198;82;26398;-72
2021/01/14 10:09:44;;;;;;;44.15;17.42;;;;;;;0.13;88.18;100360.00;1700774;82;25882;-72
2021/01/14 10:12:10;;;;;;;42.78;18.15;;;;;;;0.15;88.25;100356.91;1698462;82;25875;-72
2021/01/14 10:14:36;;;;;;;44.30;18.27;;;;;;;0.22;88.25;100368.73;1696232;82;27412;-73
2021/01/14 10:17:15;;;;;;;42.30;16.32;;;;;;;0.31;88.28;100367.36;1684401;82;26408;-72
2021/01/14 10:19:49;;;;;;;39.75;17.32;;;;;;;0.37;88.18;100369.52;1687529;82;25875;-74
2021/01/14 10:22:16;;;;;;;44.93;18.45;;;;;;;0.32;87.93;100374.82;1687887;82;26032;-71
2021/01/14 10:24:42;;;;;;;44.73;19.67;;;;;;;0.31;87.96;100375.27;1683244;82;25774;-74
2021/01/14 10:27:18;;;;;;;41.75;17.80;;;;;;;0.35;87.94;100380.52;1684465;82;28004;-74
2021/01/14 10:29:45;;;;;;;41.00;18.92;;;;;;;0.44;88.00;100391.00;1691620;82;25887;-73
2021/01/14 10:32:15;;;;;;;37.25;14.60;;;;;;;0.42;87.86;100394.09;1694560;82;25819;-72
2021/01/14 10:34:49;;;;;;;34.60;13.88;;;;;;;0.45;87.86;100401.98;1699414;82;26639;-74
2021/01/14 10:37:27;;;;;;;45.58;15.78;;;;;;;0.38;87.69;100395.00;1690273;82;26641;-73
2021/01/14 10:39:56;;;;;;;44.30;18.02;;;;;;;0.38;87.77;100395.00;1696989;82;27406;-74
2021/01/14 10:42:37;;;;;;;44.98;17.35;;;;;;;0.45;87.78;100401.98;1683937;82;25973;-73
2021/01/14 10:45:12;;;;;;;40.83;16.97;;;;;;;0.56;87.87;100393.56;1697110;82;25992;-74
2021/01/14 10:47:40;;;;;;;38.48;15.50;;;;;;;0.71;87.88;100402.69;1690383;82;26419;-73
2021/01/14 10:50:25;;;;;;;34.78;15.90;;;;;;;0.86;87.86;100410.48;1696685;82;25929;-72
2021/01/14 10:53:03;;;;;;;45.25;17.27;;;;;;;0.88;87.64;100402.56;1683337;82;25851;-75
2021/01/14 10:55:34;;;;;;;85.17;19.57;;;;;;;0.85;87.53;100402.14;1669249;82;26399;-73
2021/01/14 10:58:06;;;;;;;36.83;16.10;;;;;;;0.84;87.55;100417.53;1695534;82;25959;-72
2021/01/14 11:00:40;;;;;;;39.18;14.95;;;;;;;0.87;87.59;100413.55;1685355;83;25846;-73
2021/01/14 11:03:09;;;;;;;41.63;16.87;;;;;;;0.85;87.45;100417.09;1681919;82;26160;-73
2021/01/14 11:05:51;;;;;;;42.17;17.48;;;;;;;0.85;87.45;100417.09;1684766;82;28407;-74
2021/01/14 11:08:25;;;;;;;38.80;16.35;;;;;;;0.75;87.33;100406.17;1688665;82;25870;-73
2021/01/14 11:11:15;;;;;;;36.73;15.20;;;;;;;0.76;87.32;100418.03;1682067;82;25855;-74
2021/01/14 11:13:50;;;;;;;39.85;17.57;;;;;;;0.77;87.34;100422.42;1706763;82;26582;-74
2021/01/14 11:16:22;;;;;;;40.10;18.55;;;;;;;0.72;87.23;100426.86;1703624;82;26118;-73
2021/01/14 11:18:54;;;;;;;40.45;18.75;;;;;;;0.69;87.11;100433.47;1690933;82;26139;-73
2021/01/14 11:21:34;;;;;;;46.53;18.60;;;;;;;0.65;87.12;100435.25;1698930;82;25837;-73
2021/01/14 11:24:01;;;;;;;45.20;17.67;;;;;;;0.65;87.14;100438.33;1698147;82;26072;-73
2021/01/14 11:26:31;;;;;;;38.88;17.90;;;;;;;0.65;87.27;100432.62;1705171;82;25941;-74
2021/01/14 11:28:56;;;;;;;45.73;18.02;;;;;;;0.61;87.06;100433.52;1703788;82;25802;-74
2021/01/14 11:31:25;;;;;;;44.88;18.65;;;;;;;0.59;87.19;100437.93;1688154;82;27586;-74
2021/01/14 11:33:52;;;;;;;48.83;21.12;;;;;;;0.61;87.23;100445.39;1696947;82;25843;-73
2021/01/14 11:36:20;;;;;;;50.50;22.02;;;;;;;0.59;87.08;100439.69;1696887;82;25455;-73
2021/01/14 11:38:48;;;;;;;40.08;18.25;;;;;;;0.53;87.02;100440.60;1702282;82;26253;-74
2021/01/14 11:41:22;;;;;;;46.08;19.27;;;;;;;0.56;87.02;100437.08;1689265;82;26540;-72
2021/01/14 11:43:48;;;;;;;46.58;19.67;;;;;;;0.58;87.06;100437.50;1705475;82;26971;-73